createdAt,value
2022-10-10T00:01:53.711Z,101618.58
2022-10-10T00:05:21.998Z,101611.27
2022-10-10T00:08:49.500Z,101609.49
2022-10-10T00:12:21.499Z,101599.59
2022-10-10T00:15:51.537Z,101596.47
2022-10-10T00:19:20.600Z,101591.45
2022-10-10T00:22:48.313Z,101593.54
2022-10-10T00:26:19.218Z,101590.46
2022-10-10T00:29:45.952Z,101591.05
2022-10-10T00:33:14.785Z,101588.69
2022-10-10T00:36:43.092Z,101592.91
2022-10-10T00:40:13.390Z,101584.90
2022-10-10T00:43:40.717Z,101577.73
2022-10-10T00:47:07.715Z,101583.32
2022-10-10T00:50:37.661Z,101580.11
2022-10-10T00:54:07.590Z,101581.21
2022-10-10T00:57:34.842Z,101576.77
2022-10-10T01:01:01.605Z,101575.06
2022-10-10T01:04:43.096Z,101573.00
2022-10-10T01:08:11.262Z,101573.84
2022-10-10T01:11:53.505Z,101571.61
2022-10-10T01:15:29.221Z,101563.97
2022-10-10T01:19:06.727Z,101566.00
2022-10-10T01:22:45.252Z,101562.65
2022-10-10T01:26:36.525Z,101561.92
2022-10-10T01:30:07.015Z,101556.09
2022-10-10T01:33:40.215Z,101553.66
2022-10-10T01:37:16.371Z,101555.91
2022-10-10T01:40:52.640Z,101555.93
2022-10-10T01:44:20.714Z,101548.08
2022-10-10T01:47:47.610Z,101542.41
2022-10-10T01:51:30.388Z,101545.24
2022-10-10T01:55:09.587Z,101545.10
2022-10-10T01:58:54.869Z,101541.88
2022-10-10T02:02:32.674Z,101537.45
2022-10-10T02:06:05.718Z,101538.33
2022-10-10T02:09:40.036Z,101530.41
2022-10-10T02:13:11.651Z,101527.81
2022-10-10T02:16:43.774Z,101530.55
2022-10-10T02:20:15.082Z,101528.73
2022-10-10T02:23:44.900Z,101523.51
2022-10-10T02:27:23.011Z,101520.31
2022-10-10T02:30:53.933Z,101520.91
2022-10-10T02:34:23.410Z,101521.75
2022-10-10T02:37:53.471Z,101520.31
2022-10-10T02:41:22.389Z,101516.64
2022-10-10T02:44:50.163Z,101511.15
2022-10-10T02:48:17.169Z,101511.34
2022-10-10T02:51:44.142Z,101508.80
2022-10-10T02:55:12.520Z,101508.52
2022-10-10T02:58:38.941Z,101501.02
2022-10-10T03:02:06.861Z,101508.14
2022-10-10T03:05:34.015Z,101505.62
2022-10-10T03:09:01.039Z,101502.05
2022-10-10T03:12:27.583Z,101492.45
2022-10-10T03:15:54.785Z,101486.09
2022-10-10T03:19:21.710Z,101488.33
2022-10-10T03:22:49.563Z,101493.84
2022-10-10T03:26:16.984Z,101492.56
2022-10-10T03:29:43.879Z,101493.21
2022-10-10T03:33:11.554Z,101490.21
2022-10-10T03:36:38.457Z,101484.30
2022-10-10T03:40:05.498Z,101483.77
2022-10-10T03:43:31.838Z,101484.30
2022-10-10T03:46:58.958Z,101479.64
2022-10-10T03:50:25.600Z,101472.77
2022-10-10T03:53:52.709Z,101472.31
2022-10-10T03:57:19.332Z,101472.56
2022-10-10T04:00:46.094Z,101467.98
2022-10-10T04:04:12.631Z,101463.70
2022-10-10T04:07:39.085Z,101464.14
2022-10-10T04:11:05.925Z,101462.99
2022-10-10T04:14:32.783Z,101460.46
2022-10-10T04:17:59.991Z,101459.80
2022-10-10T04:21:28.787Z,101460.52
2022-10-10T04:24:56.337Z,101454.49
2022-10-10T04:28:23.036Z,101452.41
2022-10-10T04:31:49.656Z,101453.40
2022-10-10T04:35:16.816Z,101458.89
2022-10-10T04:38:44.096Z,101459.00
2022-10-10T04:42:10.903Z,101457.23
2022-10-10T04:45:37.914Z,101450.78
2022-10-10T04:49:05.309Z,101445.09
2022-10-10T04:52:32.051Z,101445.07
2022-10-10T04:55:59.108Z,101439.91
2022-10-10T04:59:26.416Z,101447.69
2022-10-10T05:02:55.468Z,101449.98
2022-10-10T05:06:22.240Z,101446.46
2022-10-10T05:09:52.004Z,101439.33
2022-10-10T05:13:19.396Z,101437.68
2022-10-10T05:16:45.959Z,101433.94
2022-10-10T05:20:17.630Z,101430.38
2022-10-10T05:23:44.883Z,101426.66
2022-10-10T05:27:11.973Z,101427.68
2022-10-10T05:30:38.511Z,101424.41
2022-10-10T05:34:05.163Z,101425.61
2022-10-10T05:37:32.782Z,101423.48
2022-10-10T05:40:59.359Z,101418.40
2022-10-10T05:44:26.293Z,101414.17
2022-10-10T05:47:56.082Z,101408.21
2022-10-10T05:51:24.788Z,101414.47
2022-10-10T05:54:52.394Z,101415.09
2022-10-10T05:58:21.079Z,101413.33
2022-10-10T06:01:48.975Z,101407.88
2022-10-10T06:05:16.640Z,101406.12
2022-10-10T06:08:43.332Z,101397.13
2022-10-10T06:12:10.576Z,101397.86
2022-10-10T06:15:37.931Z,101398.20
2022-10-10T06:19:05.013Z,101399.06
2022-10-10T06:22:32.689Z,101393.90
2022-10-10T06:26:00.258Z,101401.48
2022-10-10T06:29:27.336Z,101401.98
2022-10-10T06:32:56.798Z,101402.61
2022-10-10T06:36:23.808Z,101406.00
2022-10-10T06:39:50.477Z,101403.51
2022-10-10T06:43:19.909Z,101398.46
2022-10-10T06:46:47.909Z,101395.40
2022-10-10T06:50:14.632Z,101394.35
2022-10-10T06:53:44.380Z,101396.23
2022-10-10T06:57:11.731Z,101395.34
2022-10-10T07:00:38.409Z,101395.16
2022-10-10T07:04:06.330Z,101397.53
2022-10-10T07:07:33.306Z,101398.52
2022-10-10T07:10:59.945Z,101395.95
2022-10-10T07:14:26.334Z,101391.54
2022-10-10T07:18:00.464Z,101388.02
2022-10-10T07:21:27.991Z,101384.84
2022-10-10T07:24:55.080Z,101380.94
2022-10-10T07:28:22.173Z,101377.06
2022-10-10T07:31:49.212Z,101369.98
2022-10-10T07:35:15.738Z,101366.27
2022-10-10T07:38:42.742Z,101369.63
2022-10-10T07:42:10.702Z,101364.13
2022-10-10T07:45:39.862Z,101357.93
2022-10-10T07:49:06.937Z,101360.30
2022-10-10T07:52:34.236Z,101354.03
2022-10-10T07:56:00.788Z,101352.02
2022-10-10T07:59:28.117Z,101346.90
2022-10-10T08:02:55.246Z,101342.98
2022-10-10T08:06:22.673Z,101338.35
2022-10-10T08:09:49.341Z,101331.39
2022-10-10T08:13:15.992Z,101326.75
2022-10-10T08:16:42.886Z,101319.30
2022-10-10T08:20:10.619Z,101304.05
2022-10-10T08:23:38.551Z,101301.63
2022-10-10T08:27:08.513Z,101298.67
2022-10-10T08:30:35.625Z,101295.83
2022-10-10T08:34:05.080Z,101293.30
2022-10-10T08:37:37.131Z,101285.25
2022-10-10T08:41:09.014Z,101285.98
2022-10-10T08:44:43.890Z,101283.64
2022-10-10T08:48:16.473Z,101277.39
2022-10-10T08:51:51.686Z,101264.81
2022-10-10T08:55:24.609Z,101262.35
2022-10-10T08:59:01.491Z,101254.15
2022-10-10T09:02:56.271Z,101248.65
2022-10-10T09:06:39.961Z,101246.34
2022-10-10T09:10:20.711Z,101247.02
2022-10-10T09:13:54.634Z,101240.27
2022-10-10T09:17:39.643Z,101232.83
2022-10-10T09:21:16.658Z,101230.30
2022-10-10T09:24:50.158Z,101228.27
2022-10-10T09:28:21.882Z,101225.23
2022-10-10T09:31:53.956Z,101223.11
2022-10-10T09:35:24.693Z,101222.24
2022-10-10T09:38:55.535Z,101218.11
2022-10-10T09:42:30.147Z,101219.73
2022-10-10T09:45:58.932Z,101213.71
2022-10-10T09:49:27.237Z,101206.68
2022-10-10T09:52:55.419Z,101206.88
2022-10-10T09:56:25.025Z,101199.66
2022-10-10T09:59:52.133Z,101195.95
2022-10-10T10:03:23.731Z,101190.79
2022-10-10T10:06:52.666Z,101192.96
2022-10-10T10:10:24.666Z,101184.27
2022-10-10T10:13:58.128Z,101182.52
2022-10-10T10:17:26.769Z,101175.84
2022-10-10T10:20:55.303Z,101171.89
2022-10-10T10:24:31.160Z,101160.07
2022-10-10T10:28:18.350Z,101152.99
2022-10-10T10:31:59.827Z,101143.71
2022-10-10T10:35:33.033Z,101136.22
2022-10-10T10:39:08.348Z,101130.80
2022-10-10T10:42:56.334Z,101127.39
2022-10-10T10:46:35.714Z,101119.80
2022-10-10T10:50:28.842Z,101113.33
2022-10-10T10:54:03.584Z,101111.26
2022-10-10T10:58:00.060Z,101101.88
2022-10-10T11:01:55.241Z,101096.86
2022-10-10T11:05:44.873Z,101091.56
2022-10-10T11:09:44.936Z,101085.11
2022-10-10T11:13:15.076Z,101082.77
2022-10-10T11:16:49.098Z,101072.79
2022-10-10T11:20:24.625Z,101066.66
2022-10-10T11:23:58.957Z,101058.92
2022-10-10T11:27:30.192Z,101058.30
2022-10-10T11:31:03.111Z,101052.23
2022-10-10T11:34:35.543Z,101039.77
2022-10-10T11:38:12.958Z,101034.86
2022-10-10T11:41:44.324Z,101031.64
2022-10-10T11:45:18.555Z,101022.95
2022-10-10T11:48:54.437Z,101018.40
2022-10-10T11:52:33.968Z,101009.23
2022-10-10T11:56:09.830Z,101010.20
2022-10-10T11:59:43.876Z,101007.21
2022-10-10T12:03:11.788Z,100995.42
2022-10-10T12:06:43.580Z,100991.20
2022-10-10T12:10:17.427Z,100981.86
2022-10-10T12:13:44.797Z,100981.10
2022-10-10T12:17:22.398Z,100979.41
2022-10-10T12:20:49.187Z,100971.41
2022-10-10T12:24:16.963Z,100963.88
2022-10-10T12:27:49.948Z,100962.55
2022-10-10T12:31:33.850Z,100956.18
2022-10-10T12:35:05.106Z,100948.48
2022-10-10T12:38:31.839Z,100939.17
2022-10-10T12:41:58.654Z,100932.07
2022-10-10T12:45:58.721Z,100927.85
2022-10-10T12:49:52.929Z,100922.31
2022-10-10T12:53:23.431Z,100920.16
2022-10-10T12:56:54.499Z,100913.02
2022-10-10T13:00:24.484Z,100909.84
2022-10-10T13:03:54.447Z,100906.98
2022-10-10T13:07:26.417Z,100904.19
2022-10-10T13:11:08.321Z,100899.17
2022-10-10T13:14:43.754Z,100893.15
2022-10-10T13:18:13.666Z,100883.48
2022-10-10T13:21:41.014Z,100883.64
2022-10-10T13:25:13.087Z,100876.61
2022-10-10T13:28:40.089Z,100875.47
2022-10-10T13:32:23.411Z,100876.58
2022-10-10T13:36:10.350Z,100872.21
2022-10-10T13:39:46.357Z,100866.08
2022-10-10T13:43:21.041Z,100855.10
2022-10-10T13:46:52.840Z,100852.91
2022-10-10T13:50:30.133Z,100851.16
2022-10-10T13:53:57.633Z,100849.96
2022-10-10T13:57:29.114Z,100848.02
2022-10-10T14:01:01.350Z,100839.82
2022-10-10T14:04:34.495Z,100842.24
2022-10-10T14:08:03.127Z,100837.58
2022-10-10T14:11:35.194Z,100828.84
2022-10-10T14:15:06.070Z,100821.58
2022-10-10T14:18:37.499Z,100822.39
2022-10-10T14:22:04.820Z,100819.34
2022-10-10T14:25:35.701Z,100816.33
2022-10-10T14:29:04.198Z,100810.73
2022-10-10T14:32:33.577Z,100815.64
2022-10-10T14:36:05.939Z,100807.62
2022-10-10T14:39:33.344Z,100802.19
2022-10-10T14:43:00.658Z,100797.20
2022-10-10T14:46:27.497Z,100794.42
2022-10-10T14:49:57.589Z,100788.64
2022-10-10T14:53:25.282Z,100785.52
2022-10-10T14:57:08.996Z,100782.39
2022-10-10T15:00:37.243Z,100779.88
2022-10-10T15:04:06.355Z,100782.61
2022-10-10T15:07:34.189Z,100777.36
2022-10-10T15:11:01.235Z,100784.36
2022-10-10T15:14:28.052Z,100781.83
2022-10-10T15:17:55.046Z,100778.58
2022-10-10T15:21:23.308Z,100773.73
2022-10-10T15:24:50.344Z,100771.37
2022-10-10T15:28:17.594Z,100767.33
2022-10-10T15:31:46.617Z,100767.05
2022-10-10T15:35:18.277Z,100764.73
2022-10-10T15:38:48.434Z,100757.50
2022-10-10T15:42:22.393Z,100758.65
2022-10-10T15:45:55.811Z,100750.45
2022-10-10T15:49:39.711Z,100747.92
2022-10-10T15:53:07.030Z,100743.92
2022-10-10T15:56:34.298Z,100747.98
2022-10-10T16:00:04.470Z,100747.71
2022-10-10T16:03:39.532Z,100746.42
2022-10-10T16:10:54.525Z,100747.30
2022-10-10T16:14:22.426Z,100741.02
2022-10-10T16:17:49.377Z,100739.05
2022-10-10T16:21:21.283Z,100739.73
2022-10-10T16:25:10.101Z,100740.43
2022-10-10T16:28:36.736Z,100733.93
2022-10-10T16:32:04.330Z,100734.52
2022-10-10T16:35:32.353Z,100735.98
2022-10-10T16:39:02.828Z,100733.77
2022-10-10T16:42:33.583Z,100731.83
2022-10-10T16:46:06.367Z,100727.95
2022-10-10T16:49:34.060Z,100728.48
2022-10-10T16:53:01.432Z,100728.09
2022-10-10T16:56:30.627Z,100727.02
2022-10-10T16:59:59.909Z,100730.10
2022-10-10T17:03:28.005Z,100725.98
2022-10-10T17:06:55.032Z,100723.55
2022-10-10T17:10:26.092Z,100722.96
2022-10-10T17:13:57.849Z,100720.66
2022-10-10T17:17:26.068Z,100720.20
2022-10-10T17:20:53.875Z,100723.23
2022-10-10T17:24:22.036Z,100717.42
2022-10-10T17:27:55.597Z,100721.02
2022-10-10T17:31:22.883Z,100717.40
2022-10-10T17:34:51.076Z,100714.64
2022-10-10T17:38:38.369Z,100712.69
2022-10-10T17:42:07.754Z,100711.73
2022-10-10T17:45:38.529Z,100703.31
2022-10-10T17:49:07.426Z,100694.39
2022-10-10T17:52:41.659Z,100697.70
2022-10-10T17:56:18.055Z,100696.87
2022-10-10T17:59:45.183Z,100692.83
2022-10-10T18:03:13.801Z,100691.02
2022-10-10T18:06:41.506Z,100686.55
2022-10-10T18:10:10.003Z,100682.40
2022-10-10T18:13:37.883Z,100682.19
2022-10-10T18:17:17.895Z,100680.00
2022-10-10T18:20:45.599Z,100676.31
2022-10-10T18:24:18.203Z,100669.75
2022-10-10T18:27:45.548Z,100664.11
2022-10-10T18:31:15.945Z,100658.10
2022-10-10T18:34:46.466Z,100652.38
2022-10-10T18:38:13.392Z,100650.77
2022-10-10T18:41:40.888Z,100649.92
2022-10-10T18:45:09.955Z,100649.23
2022-10-10T18:48:39.089Z,100642.62
2022-10-10T18:52:13.266Z,100638.52
2022-10-10T18:55:42.101Z,100636.13
2022-10-10T18:59:17.838Z,100631.81
2022-10-10T19:02:50.763Z,100635.19
2022-10-10T19:06:22.911Z,100635.32
2022-10-10T19:09:53.649Z,100634.42
2022-10-10T19:13:24.976Z,100636.83
2022-10-10T19:16:52.740Z,100626.91
2022-10-10T19:20:28.456Z,100621.22
2022-10-10T19:23:57.766Z,100623.39
2022-10-10T19:27:25.984Z,100619.98
2022-10-10T19:30:55.566Z,100620.84
2022-10-10T19:34:24.218Z,100618.35
2022-10-10T19:37:52.859Z,100617.13
2022-10-10T19:41:25.130Z,100616.51
2022-10-10T19:44:53.293Z,100615.69
2022-10-10T19:48:24.771Z,100612.30
2022-10-10T19:51:55.389Z,100607.59
2022-10-10T19:55:23.816Z,100608.13
2022-10-10T19:58:58.572Z,100614.58
2022-10-10T20:02:28.269Z,100612.75
2022-10-10T20:06:01.741Z,100613.34
2022-10-10T20:09:30.440Z,100614.88
2022-10-10T20:12:58.434Z,100616.85
2022-10-10T20:16:28.897Z,100616.92
2022-10-10T20:19:56.460Z,100617.77
2022-10-10T20:23:39.223Z,100617.66
2022-10-10T20:27:05.916Z,100614.40
2022-10-10T20:30:47.467Z,100612.55
2022-10-10T20:34:14.920Z,100614.48
2022-10-10T20:37:45.485Z,100616.27
2022-10-10T20:41:23.278Z,100620.02
2022-10-10T20:44:55.771Z,100618.23
2022-10-10T20:48:24.359Z,100616.74
2022-10-10T20:51:54.369Z,100616.02
2022-10-10T20:55:22.048Z,100615.50
2022-10-10T20:58:53.761Z,100617.16
2022-10-10T21:02:21.058Z,100615.98
2022-10-10T21:06:02.607Z,100617.13
2022-10-10T21:09:37.722Z,100611.91
2022-10-10T21:13:05.708Z,100610.04
2022-10-10T21:16:37.490Z,100607.89
2022-10-10T21:20:05.949Z,100610.72
2022-10-10T21:23:37.759Z,100611.33
2022-10-10T21:27:08.902Z,100609.38
2022-10-10T21:30:39.291Z,100615.40
2022-10-10T21:34:11.341Z,100621.58
2022-10-10T21:37:39.132Z,100624.82
2022-10-10T21:41:11.004Z,100625.25
2022-10-10T21:44:37.933Z,100624.34
2022-10-10T21:48:05.441Z,100618.85
2022-10-10T21:51:48.559Z,100626.75
2022-10-10T21:55:14.188Z,100623.11
2022-10-10T21:58:42.919Z,100624.86
2022-10-10T22:02:11.370Z,100625.90
2022-10-10T22:05:42.624Z,100626.31
2022-10-10T22:09:12.688Z,100624.75
2022-10-10T22:12:40.070Z,100630.78
2022-10-10T22:16:07.940Z,100630.04
2022-10-10T22:19:35.633Z,100624.33
2022-10-10T22:23:02.340Z,100618.07
2022-10-10T22:26:29.220Z,100617.84
2022-10-10T22:29:56.959Z,100619.63
2022-10-10T22:33:26.522Z,100620.82
2022-10-10T22:36:56.843Z,100617.75
2022-10-10T22:40:23.995Z,100613.86
2022-10-10T22:43:51.263Z,100614.52
2022-10-10T22:47:18.236Z,100615.87
2022-10-10T22:50:44.812Z,100614.70
2022-10-10T22:54:12.300Z,100611.80
2022-10-10T22:57:43.145Z,100609.93
2022-10-10T23:01:12.705Z,100606.63
2022-10-10T23:04:40.254Z,100608.05
2022-10-10T23:08:07.199Z,100612.92
2022-10-10T23:11:34.509Z,100612.55
2022-10-10T23:15:03.008Z,100615.11
2022-10-10T23:18:30.862Z,100613.46
2022-10-10T23:21:58.775Z,100609.52
2022-10-10T23:25:25.557Z,100608.92
2022-10-10T23:28:54.501Z,100608.73
2022-10-10T23:32:23.179Z,100609.59
2022-10-10T23:36:00.141Z,100613.32
2022-10-10T23:39:26.742Z,100612.48
2022-10-10T23:42:55.608Z,100614.52
2022-10-10T23:46:22.968Z,100612.58
2022-10-10T23:49:49.864Z,100610.11
2022-10-10T23:53:16.513Z,100610.52
2022-10-10T23:56:42.801Z,100610.06
